createdAt,value
2017-08-26T00:00:03.221Z,17.59
2017-08-26T00:02:36.673Z,17.43
2017-08-26T00:05:04.591Z,17.42
2017-08-26T00:07:32.505Z,17.44
2017-08-26T00:10:00.411Z,17.49
2017-08-26T00:12:28.333Z,17.41
2017-08-26T00:14:56.261Z,17.36
2017-08-26T00:17:24.400Z,17.37
2017-08-26T00:19:52.325Z,17.26
2017-08-26T00:22:20.252Z,17.41
2017-08-26T00:24:48.180Z,17.35
2017-08-26T00:27:16.107Z,17.26
2017-08-26T00:29:44.045Z,17.13
2017-08-26T00:32:11.965Z,17.14
2017-08-26T00:34:40.096Z,17.13
2017-08-26T00:37:07.999Z,17.17
2017-08-26T00:39:35.908Z,17.15
2017-08-26T00:42:03.827Z,17.12
2017-08-26T00:44:31.768Z,17.10
2017-08-26T00:46:59.706Z,17.14
2017-08-26T00:49:27.627Z,17.07
2017-08-26T00:51:55.548Z,17.02
2017-08-26T00:54:23.470Z,16.90
2017-08-26T00:56:51.414Z,16.96
2017-08-26T00:59:19.344Z,16.86
2017-08-26T01:01:47.266Z,16.88
2017-08-26T01:04:15.200Z,16.75
2017-08-26T01:06:43.125Z,16.79
2017-08-26T01:09:11.152Z,16.82
2017-08-26T01:11:39.092Z,16.81
2017-08-26T01:14:07.024Z,16.85
2017-08-26T01:16:34.928Z,16.70
2017-08-26T01:19:02.858Z,16.77
2017-08-26T01:21:30.767Z,16.80
2017-08-26T01:23:58.865Z,16.76
2017-08-26T01:26:26.779Z,16.69
2017-08-26T01:28:54.698Z,16.70
2017-08-26T01:31:22.628Z,16.67
2017-08-26T01:33:50.544Z,16.62
2017-08-26T01:36:18.473Z,16.63
2017-08-26T01:38:46.380Z,16.61
2017-08-26T01:41:14.299Z,16.56
2017-08-26T01:43:42.216Z,16.55
2017-08-26T01:46:10.145Z,16.49
2017-08-26T01:48:38.051Z,16.48
2017-08-26T01:51:06.144Z,16.58
2017-08-26T01:53:34.060Z,16.59
2017-08-26T01:56:01.968Z,16.52
2017-08-26T01:58:29.892Z,16.57
2017-08-26T02:00:58.049Z,16.47
2017-08-26T02:03:25.989Z,16.40
2017-08-26T02:05:53.905Z,16.44
2017-08-26T02:08:21.832Z,16.45
2017-08-26T02:10:49.927Z,16.47
2017-08-26T02:13:17.860Z,16.40
2017-08-26T02:15:45.835Z,16.45
2017-08-26T02:18:13.903Z,16.38
2017-08-26T02:20:41.823Z,16.33
2017-08-26T02:23:09.747Z,16.30
2017-08-26T02:25:37.946Z,16.17
2017-08-26T02:28:05.864Z,16.17
2017-08-26T02:30:33.796Z,16.12
2017-08-26T02:33:01.730Z,16.12
2017-08-26T02:35:29.669Z,16.08
2017-08-26T02:37:57.771Z,16.06
2017-08-26T02:40:25.840Z,16.04
2017-08-26T02:42:53.760Z,16.02
2017-08-26T02:45:21.687Z,15.94
2017-08-26T02:47:49.612Z,15.93
2017-08-26T02:50:17.533Z,15.94
2017-08-26T02:52:45.461Z,15.92
2017-08-26T02:55:13.374Z,15.80
2017-08-26T02:57:41.295Z,15.85
2017-08-26T03:00:09.209Z,15.79
2017-08-26T03:02:37.573Z,15.76
2017-08-26T03:05:05.486Z,15.79
2017-08-26T03:07:33.402Z,15.77
2017-08-26T03:10:01.346Z,15.81
2017-08-26T03:12:29.264Z,15.73
2017-08-26T03:14:57.193Z,15.75
2017-08-26T03:17:25.120Z,15.80
2017-08-26T03:19:53.300Z,15.79
2017-08-26T03:22:21.229Z,15.77
2017-08-26T03:24:49.154Z,15.72
2017-08-26T03:27:17.067Z,15.71
2017-08-26T03:29:45.376Z,15.71
2017-08-26T03:32:13.280Z,15.67
2017-08-26T03:34:41.203Z,15.67
2017-08-26T03:37:09.125Z,15.73
2017-08-26T03:39:37.044Z,15.74
2017-08-26T03:42:04.970Z,15.72
2017-08-26T03:44:32.895Z,15.77
2017-08-26T03:47:00.835Z,15.72
2017-08-26T03:49:28.754Z,15.76
2017-08-26T03:51:56.682Z,15.78
2017-08-26T03:54:24.592Z,15.72
2017-08-26T03:56:52.525Z,15.71
2017-08-26T03:59:20.444Z,15.74
2017-08-26T04:01:48.359Z,15.67
2017-08-26T04:04:16.282Z,15.70
2017-08-26T04:06:44.188Z,15.64
2017-08-26T04:09:12.107Z,15.62
2017-08-26T04:11:40.019Z,15.68
2017-08-26T04:14:07.941Z,15.64
2017-08-26T04:16:35.856Z,15.66
2017-08-26T04:19:03.780Z,15.62
2017-08-26T04:21:31.698Z,15.64
2017-08-26T04:23:59.631Z,15.70
2017-08-26T04:26:27.560Z,15.71
2017-08-26T04:28:55.692Z,15.71
2017-08-26T04:31:23.600Z,15.77
2017-08-26T04:33:51.505Z,15.84
2017-08-26T04:36:19.432Z,15.98
2017-08-26T04:38:47.341Z,16.09
2017-08-26T04:41:15.272Z,16.20
2017-08-26T04:43:43.189Z,16.44
2017-08-26T04:46:11.111Z,16.48
2017-08-26T04:48:39.024Z,16.61
2017-08-26T04:51:06.971Z,16.77
2017-08-26T04:53:34.944Z,17.10
2017-08-26T04:56:02.859Z,17.35
2017-08-26T04:58:30.778Z,17.64
2017-08-26T05:00:58.701Z,17.75
2017-08-26T05:03:26.629Z,17.50
2017-08-26T05:05:54.552Z,17.52
2017-08-26T05:08:22.474Z,17.33
2017-08-26T05:10:50.413Z,17.36
2017-08-26T05:13:18.325Z,17.20
2017-08-26T05:15:46.236Z,17.39
2017-08-26T05:18:14.154Z,17.38
2017-08-26T05:20:42.086Z,17.58
2017-08-26T05:23:10.016Z,17.87
2017-08-26T05:25:37.946Z,18.20
2017-08-26T05:28:05.872Z,18.53
2017-08-26T05:30:33.800Z,18.45
2017-08-26T05:33:02.110Z,18.57
2017-08-26T05:35:30.029Z,18.49
2017-08-26T05:37:57.965Z,18.33
2017-08-26T05:40:25.883Z,18.46
2017-08-26T05:42:53.792Z,18.71
2017-08-26T05:45:21.716Z,19.15
2017-08-26T05:47:49.675Z,19.48
2017-08-26T05:50:17.612Z,19.49
2017-08-26T05:52:45.523Z,19.82
2017-08-26T05:55:13.463Z,19.54
2017-08-26T05:57:41.374Z,19.96
2017-08-26T06:00:09.300Z,19.91
2017-08-26T06:02:37.215Z,19.93
2017-08-26T06:05:05.303Z,20.46
2017-08-26T06:07:33.222Z,21.46
2017-08-26T06:10:01.136Z,22.22
2017-08-26T06:12:29.114Z,22.62
2017-08-26T06:14:57.038Z,23.22
2017-08-26T06:17:24.960Z,23.47
2017-08-26T06:19:52.920Z,24.36
2017-08-26T06:22:20.836Z,24.27
2017-08-26T06:24:48.778Z,24.34
2017-08-26T06:27:16.705Z,25.10
2017-08-26T06:29:44.608Z,25.24
2017-08-26T06:32:12.669Z,25.32
2017-08-26T06:34:40.588Z,24.86
2017-08-26T06:37:08.499Z,24.58
2017-08-26T06:39:36.436Z,24.90
2017-08-26T06:42:04.364Z,24.75
2017-08-26T06:44:32.301Z,25.69
2017-08-26T06:47:00.225Z,26.15
2017-08-26T06:49:28.148Z,26.33
2017-08-26T06:51:56.058Z,26.62
2017-08-26T06:54:23.976Z,27.11
2017-08-26T06:56:51.958Z,27.36
2017-08-26T06:59:20.133Z,26.60
2017-08-26T07:01:48.064Z,26.78
2017-08-26T07:04:15.979Z,26.84
2017-08-26T07:06:43.908Z,26.80
2017-08-26T07:09:11.828Z,25.72
2017-08-26T07:11:39.748Z,25.91
2017-08-26T07:14:07.651Z,24.58
2017-08-26T07:16:35.620Z,23.69
2017-08-26T07:19:03.548Z,23.65
2017-08-26T07:21:31.473Z,23.44
2017-08-26T07:23:59.385Z,23.56
2017-08-26T07:26:27.501Z,23.59
2017-08-26T07:28:55.421Z,23.86
2017-08-26T07:31:23.339Z,24.03
2017-08-26T07:33:51.272Z,24.65
2017-08-26T07:36:19.386Z,25.27
2017-08-26T07:38:47.550Z,25.36
2017-08-26T07:41:15.456Z,25.96
2017-08-26T07:43:43.364Z,26.18
2017-08-26T07:46:11.294Z,26.67
2017-08-26T07:48:39.199Z,26.14
2017-08-26T07:51:07.120Z,26.11
2017-08-26T07:53:35.032Z,26.26
2017-08-26T07:56:03.345Z,26.42
2017-08-26T07:58:31.268Z,26.37
2017-08-26T08:00:59.188Z,25.90
2017-08-26T08:03:27.111Z,24.68
2017-08-26T08:05:55.047Z,24.24
2017-08-26T08:08:23.096Z,23.89
2017-08-26T08:10:51.287Z,24.01
2017-08-26T08:13:19.204Z,23.58
2017-08-26T08:15:47.132Z,23.72
2017-08-26T08:18:15.039Z,23.46
2017-08-26T08:20:42.970Z,23.63
2017-08-26T08:23:10.881Z,23.60
2017-08-26T08:25:38.801Z,23.14
2017-08-26T08:28:06.738Z,22.97
2017-08-26T08:30:34.656Z,22.80
2017-08-26T08:33:02.594Z,22.64
2017-08-26T08:35:30.511Z,22.47
2017-08-26T08:37:58.454Z,22.39
2017-08-26T08:40:26.354Z,22.17
2017-08-26T08:42:54.293Z,22.09
2017-08-26T08:45:22.198Z,22.51
2017-08-26T08:47:50.296Z,22.64
2017-08-26T08:50:18.208Z,23.02
2017-08-26T08:52:46.360Z,23.22
2017-08-26T08:55:14.281Z,23.07
2017-08-26T08:57:42.220Z,23.15
2017-08-26T09:00:10.304Z,22.97
2017-08-26T09:02:38.279Z,23.13
2017-08-26T09:05:06.281Z,22.78
2017-08-26T09:07:34.208Z,22.84
2017-08-26T09:10:02.132Z,22.75
2017-08-26T09:12:30.043Z,22.71
2017-08-26T09:14:57.946Z,22.70
2017-08-26T09:17:26.071Z,23.03
2017-08-26T09:20:53.667Z,23.46
2017-08-26T09:23:21.570Z,23.62
2017-08-26T09:25:49.471Z,24.08
2017-08-26T09:28:17.396Z,24.16
2017-08-26T09:30:45.312Z,24.57
2017-08-26T09:33:13.303Z,25.09
2017-08-26T09:35:41.216Z,24.99
2017-08-26T09:38:09.316Z,24.87
2017-08-26T09:40:37.232Z,24.78
2017-08-26T09:43:05.391Z,24.56
2017-08-26T09:45:33.311Z,25.04
2017-08-26T09:48:01.254Z,24.90
2017-08-26T09:50:29.187Z,24.98
2017-08-26T09:52:57.122Z,24.44
2017-08-26T09:55:25.192Z,24.69
2017-08-26T09:57:53.110Z,24.64
2017-08-26T10:00:21.032Z,24.24
2017-08-26T10:02:49.010Z,23.80
2017-08-26T10:05:16.925Z,23.68
2017-08-26T10:07:44.848Z,23.74
2017-08-26T10:10:12.776Z,24.05
2017-08-26T10:12:40.697Z,24.10
2017-08-26T10:15:08.596Z,23.83
2017-08-26T10:17:36.966Z,23.79
2017-08-26T10:20:04.887Z,24.09
2017-08-26T10:22:32.792Z,24.34
2017-08-26T10:25:00.702Z,24.59
2017-08-26T10:27:28.628Z,24.61
2017-08-26T10:29:56.675Z,25.25
2017-08-26T10:32:24.601Z,25.34
2017-08-26T10:34:52.525Z,25.15
2017-08-26T10:37:20.452Z,25.43
2017-08-26T10:39:48.372Z,25.99
2017-08-26T10:42:16.413Z,25.88
2017-08-26T10:44:44.310Z,25.66
2017-08-26T10:47:12.217Z,25.53
2017-08-26T10:49:40.143Z,25.55
2017-08-26T10:52:08.073Z,24.86
2017-08-26T10:54:35.990Z,24.98
2017-08-26T10:57:03.912Z,25.16
2017-08-26T10:59:31.854Z,25.64
2017-08-26T11:01:59.777Z,26.29
2017-08-26T11:04:27.711Z,26.62
2017-08-26T11:06:55.628Z,26.84
2017-08-26T11:09:23.656Z,26.31
2017-08-26T11:11:51.563Z,26.26
2017-08-26T11:14:19.488Z,26.39
2017-08-26T11:16:47.479Z,27.07
2017-08-26T11:19:15.399Z,27.14
2017-08-26T11:21:43.314Z,27.32
2017-08-26T11:24:11.206Z,27.31
2017-08-26T11:26:39.132Z,27.58
2017-08-26T11:29:07.030Z,27.54
2017-08-26T11:31:35.027Z,28.12
2017-08-26T11:34:02.935Z,27.84
2017-08-26T11:36:31.043Z,27.83
2017-08-26T11:38:58.968Z,27.42
2017-08-26T11:41:26.896Z,26.80
2017-08-26T11:43:54.837Z,26.35
2017-08-26T11:46:23.070Z,26.08
2017-08-26T11:48:51.099Z,26.10
2017-08-26T11:51:19.019Z,26.35
2017-08-26T11:53:46.909Z,25.99
2017-08-26T11:56:14.852Z,26.36
2017-08-26T11:58:42.758Z,26.18
2017-08-26T12:01:11.178Z,25.89
2017-08-26T12:03:39.094Z,25.72
2017-08-26T12:06:07.047Z,25.82
2017-08-26T12:08:34.971Z,25.76
2017-08-26T12:11:02.900Z,25.30
2017-08-26T12:13:30.826Z,25.31
2017-08-26T12:15:58.749Z,25.30
2017-08-26T12:18:26.657Z,25.29
2017-08-26T12:20:54.712Z,25.31
2017-08-26T12:23:22.615Z,25.30
2017-08-26T12:25:50.536Z,25.31
2017-08-26T12:28:18.756Z,25.59
2017-08-26T12:30:46.668Z,25.52
2017-08-26T12:33:14.570Z,25.15
2017-08-26T12:35:42.489Z,25.38
2017-08-26T12:38:10.410Z,25.64
2017-08-26T12:40:38.311Z,25.47
2017-08-26T12:43:06.223Z,25.55
2017-08-26T12:45:34.119Z,25.63
2017-08-26T12:48:02.047Z,25.88
2017-08-26T12:50:29.964Z,25.84
2017-08-26T12:52:58.221Z,25.45
2017-08-26T12:55:26.139Z,25.39
2017-08-26T12:57:54.044Z,25.57
2017-08-26T13:00:21.982Z,25.61
2017-08-26T13:02:49.898Z,25.97
2017-08-26T13:05:17.832Z,25.79
2017-08-26T13:07:45.757Z,25.42
2017-08-26T13:10:13.915Z,25.76
2017-08-26T13:12:41.824Z,25.56
2017-08-26T13:15:09.727Z,25.32
2017-08-26T13:17:37.638Z,25.08
2017-08-26T13:20:05.546Z,25.25
2017-08-26T13:22:33.472Z,25.48
2017-08-26T13:25:01.376Z,25.63
2017-08-26T13:27:29.310Z,26.03
2017-08-26T13:29:57.231Z,25.43
2017-08-26T13:32:25.158Z,25.61
2017-08-26T13:34:53.062Z,25.60
2017-08-26T13:37:20.974Z,25.74
2017-08-26T13:39:48.886Z,25.69
2017-08-26T13:42:16.994Z,25.43
2017-08-26T13:44:44.897Z,25.71
2017-08-26T13:47:12.810Z,25.85
2017-08-26T13:49:40.733Z,25.82
2017-08-26T13:52:08.667Z,25.67
2017-08-26T13:54:36.596Z,25.92
2017-08-26T13:57:04.999Z,25.94
2017-08-26T13:59:33.104Z,25.99
2017-08-26T14:02:01.068Z,25.93
2017-08-26T14:04:28.975Z,26.13
2017-08-26T14:06:56.886Z,26.20
2017-08-26T14:09:24.815Z,26.28
2017-08-26T14:11:54.358Z,26.10
2017-08-26T14:14:22.274Z,25.79
2017-08-26T14:16:50.323Z,25.66
2017-08-26T14:19:18.245Z,25.43
2017-08-26T14:21:46.155Z,25.19
2017-08-26T14:24:14.084Z,25.21
2017-08-26T14:26:42.004Z,25.31
2017-08-26T14:29:10.080Z,25.52
2017-08-26T14:31:37.974Z,25.51
2017-08-26T14:34:05.884Z,25.73
2017-08-26T14:36:33.805Z,25.77
2017-08-26T14:39:01.721Z,25.88
2017-08-26T14:41:29.819Z,26.14
2017-08-26T14:43:57.717Z,25.92
2017-08-26T14:46:25.636Z,26.02
2017-08-26T14:48:53.566Z,25.97
2017-08-26T14:51:21.487Z,25.55
2017-08-26T14:53:49.707Z,25.24
2017-08-26T14:56:17.660Z,25.16
2017-08-26T14:58:45.710Z,25.32
2017-08-26T15:01:13.602Z,25.36
2017-08-26T15:03:41.521Z,25.17
2017-08-26T15:06:09.436Z,25.05
2017-08-26T15:08:37.340Z,25.08
2017-08-26T15:11:05.274Z,25.13
2017-08-26T15:13:33.185Z,25.09
2017-08-26T15:16:01.095Z,24.89
2017-08-26T15:18:29.021Z,24.72
2017-08-26T15:20:57.126Z,24.57
2017-08-26T15:23:25.047Z,24.57
2017-08-26T15:25:53.081Z,24.54
2017-08-26T15:28:21.014Z,24.77
2017-08-26T15:30:48.960Z,24.87
2017-08-26T15:33:17.101Z,24.79
2017-08-26T15:35:45.032Z,24.86
2017-08-26T15:38:12.943Z,24.69
2017-08-26T15:40:40.876Z,24.77
2017-08-26T15:43:08.784Z,24.83
2017-08-26T15:45:36.713Z,24.85
2017-08-26T15:48:04.617Z,24.65
2017-08-26T15:50:32.679Z,24.55
2017-08-26T15:53:00.652Z,24.54
2017-08-26T15:55:28.574Z,24.58
2017-08-26T15:57:56.491Z,24.74
2017-08-26T16:00:24.408Z,24.63
2017-08-26T16:02:52.510Z,24.57
2017-08-26T16:05:20.431Z,24.54
2017-08-26T16:07:48.344Z,24.29
2017-08-26T16:10:16.251Z,24.20
2017-08-26T16:12:44.219Z,23.93
2017-08-26T16:15:12.151Z,23.63
2017-08-26T16:17:40.079Z,23.58
2017-08-26T16:20:07.998Z,23.49
2017-08-26T16:22:36.001Z,23.69
2017-08-26T16:25:03.920Z,23.91
2017-08-26T16:27:31.835Z,24.05
2017-08-26T16:29:59.902Z,24.06
2017-08-26T16:32:27.809Z,24.12
2017-08-26T16:34:55.723Z,23.99
2017-08-26T16:37:23.652Z,24.05
2017-08-26T16:39:51.563Z,24.12
2017-08-26T16:42:19.495Z,24.16
2017-08-26T16:44:47.413Z,24.18
2017-08-26T16:47:15.581Z,24.21
2017-08-26T16:49:43.508Z,24.20
2017-08-26T16:52:11.416Z,24.26
2017-08-26T16:54:39.336Z,24.19
2017-08-26T16:57:07.239Z,24.25
2017-08-26T16:59:35.167Z,24.22
2017-08-26T17:02:03.070Z,24.31
2017-08-26T17:04:30.987Z,24.48
2017-08-26T17:06:58.908Z,24.22
2017-08-26T17:09:27.119Z,24.21
2017-08-26T17:11:55.036Z,24.39
2017-08-26T17:14:22.971Z,24.20
2017-08-26T17:16:50.872Z,24.02
2017-08-26T17:19:18.779Z,23.85
2017-08-26T17:21:46.716Z,23.77
2017-08-26T17:24:14.619Z,23.64
2017-08-26T17:26:42.698Z,23.65
2017-08-26T17:29:10.609Z,23.55
2017-08-26T17:31:38.516Z,23.61
2017-08-26T17:34:06.431Z,23.67
2017-08-26T17:36:34.335Z,23.72
2017-08-26T17:39:02.266Z,23.66
2017-08-26T17:41:30.360Z,23.61
2017-08-26T17:43:58.288Z,23.58
2017-08-26T17:46:26.197Z,23.45
2017-08-26T17:48:54.211Z,23.42
2017-08-26T17:51:22.112Z,23.47
2017-08-26T17:53:50.027Z,23.41
2017-08-26T17:56:17.973Z,23.35
2017-08-26T17:58:45.881Z,23.30
2017-08-26T18:01:13.800Z,23.25
2017-08-26T18:03:41.709Z,23.28
2017-08-26T18:06:09.642Z,23.21
2017-08-26T18:08:37.542Z,23.20
2017-08-26T18:11:05.449Z,23.11
2017-08-26T18:13:33.525Z,23.11
2017-08-26T18:16:01.428Z,23.06
2017-08-26T18:18:29.339Z,22.95
2017-08-26T18:20:57.281Z,22.73
2017-08-26T18:23:25.189Z,22.63
2017-08-26T18:25:53.118Z,22.51
2017-08-26T18:28:21.028Z,22.39
2017-08-26T18:30:49.175Z,22.33
2017-08-26T18:33:17.095Z,22.33
2017-08-26T18:35:45.001Z,22.35
2017-08-26T18:38:12.913Z,22.37
2017-08-26T18:40:40.827Z,22.28
2017-08-26T18:43:08.762Z,22.20
2017-08-26T18:45:36.674Z,22.26
2017-08-26T18:48:04.597Z,22.14
2017-08-26T18:50:32.786Z,22.12
2017-08-26T18:53:00.712Z,22.16
2017-08-26T18:55:28.638Z,22.21
2017-08-26T18:57:56.551Z,22.20
2017-08-26T19:00:24.481Z,22.09
2017-08-26T19:02:52.393Z,22.08
2017-08-26T19:05:20.311Z,21.99
2017-08-26T19:07:48.444Z,21.93
2017-08-26T19:10:16.402Z,21.95
2017-08-26T19:12:44.377Z,21.82
2017-08-26T19:15:12.314Z,21.81
2017-08-26T19:17:40.207Z,21.84
2017-08-26T19:20:08.291Z,21.94
2017-08-26T19:22:36.217Z,21.99
2017-08-26T19:25:04.737Z,21.92
2017-08-26T19:27:32.639Z,22.03
2017-08-26T19:30:00.546Z,22.09
2017-08-26T19:32:28.460Z,22.15
2017-08-26T19:34:56.386Z,22.10
2017-08-26T19:37:24.624Z,22.14
2017-08-26T19:39:52.552Z,21.94
2017-08-26T19:42:20.871Z,21.99
2017-08-26T19:44:48.767Z,21.85
2017-08-26T19:47:16.693Z,21.91
2017-08-26T19:49:44.606Z,22.02
2017-08-26T19:52:12.504Z,21.89
2017-08-26T19:54:40.429Z,21.86
2017-08-26T19:57:08.336Z,21.80
2017-08-26T19:59:36.251Z,21.86
2017-08-26T20:02:04.431Z,21.64
2017-08-26T20:04:32.575Z,21.78
2017-08-26T20:07:00.501Z,21.74
2017-08-26T20:09:28.451Z,21.80
2017-08-26T20:11:56.464Z,21.66
2017-08-26T20:14:24.373Z,21.71
2017-08-26T20:16:52.302Z,21.58
2017-08-26T20:19:20.225Z,21.73
2017-08-26T20:21:48.497Z,21.84
2017-08-26T20:24:16.679Z,21.64
2017-08-26T20:26:44.597Z,21.64
2017-08-26T20:29:12.530Z,21.71
2017-08-26T20:31:40.438Z,21.57
2017-08-26T20:34:08.356Z,21.55
2017-08-26T20:36:36.275Z,21.67
2017-08-26T20:39:04.217Z,21.49
2017-08-26T20:41:32.133Z,21.54
2017-08-26T20:44:00.058Z,21.57
2017-08-26T20:46:28.005Z,21.48
2017-08-26T20:48:55.902Z,21.41
2017-08-26T20:51:23.825Z,21.45
2017-08-26T20:53:51.739Z,21.44
2017-08-26T20:56:19.661Z,21.41
2017-08-26T20:58:47.561Z,21.46
2017-08-26T21:01:15.784Z,21.36
2017-08-26T21:03:43.693Z,21.40
2017-08-26T21:06:11.591Z,21.41
2017-08-26T21:08:39.524Z,21.52
2017-08-26T21:11:07.436Z,21.55
2017-08-26T21:13:35.369Z,21.48
2017-08-26T21:16:03.294Z,21.65
2017-08-26T21:18:31.467Z,21.68
2017-08-26T21:20:59.383Z,21.72
2017-08-26T21:23:27.297Z,21.55
2017-08-26T21:25:55.230Z,21.55
2017-08-26T21:28:23.140Z,21.72
2017-08-26T21:30:51.053Z,21.88
2017-08-26T21:33:18.965Z,21.79
2017-08-26T21:35:46.883Z,21.71
2017-08-26T21:38:14.789Z,21.78
2017-08-26T21:40:42.898Z,21.96
2017-08-26T21:43:10.815Z,21.89
2017-08-26T21:45:38.728Z,21.79
2017-08-26T21:48:06.656Z,21.86
2017-08-26T21:50:34.559Z,21.87
2017-08-26T21:53:02.470Z,21.78
2017-08-26T21:55:30.393Z,21.79
2017-08-26T21:57:58.320Z,21.84
2017-08-26T22:00:26.240Z,21.68
2017-08-26T22:02:54.453Z,21.68
2017-08-26T22:05:22.371Z,21.65
2017-08-26T22:07:50.399Z,21.83
2017-08-26T22:10:18.303Z,21.97
2017-08-26T22:12:46.222Z,22.00
2017-08-26T22:15:14.154Z,22.03
2017-08-26T22:17:42.063Z,21.94
2017-08-26T22:20:09.975Z,21.80
2017-08-26T22:22:37.892Z,21.93
2017-08-26T22:25:05.811Z,22.01
2017-08-26T22:27:33.720Z,21.97
2017-08-26T22:30:01.863Z,22.14
2017-08-26T22:32:29.758Z,21.98
2017-08-26T22:34:57.671Z,22.06
2017-08-26T22:37:25.684Z,22.06
2017-08-26T22:39:53.608Z,22.04
2017-08-26T22:42:21.527Z,22.08
2017-08-26T22:44:49.450Z,22.10
2017-08-26T22:47:17.367Z,22.07
2017-08-26T22:49:45.271Z,21.77
2017-08-26T22:52:13.201Z,21.66
2017-08-26T22:54:41.112Z,21.64
2017-08-26T22:57:09.029Z,21.51
2017-08-26T22:59:36.932Z,21.43
2017-08-26T23:02:04.980Z,21.51
2017-08-26T23:04:32.902Z,21.53
2017-08-26T23:07:00.793Z,21.37
2017-08-26T23:09:28.706Z,21.41
2017-08-26T23:11:56.613Z,21.35
2017-08-26T23:14:24.526Z,21.47
2017-08-26T23:16:52.423Z,21.40
2017-08-26T23:19:20.345Z,21.56
2017-08-26T23:21:48.335Z,21.41
2017-08-26T23:24:16.390Z,21.40
2017-08-26T23:26:44.300Z,21.53
2017-08-26T23:29:12.210Z,21.70
2017-08-26T23:31:40.154Z,21.69
2017-08-26T23:34:08.055Z,21.46
2017-08-26T23:36:35.973Z,21.47
2017-08-26T23:39:03.886Z,21.34
2017-08-26T23:41:31.815Z,21.38
2017-08-26T23:43:59.727Z,21.40
2017-08-26T23:46:27.638Z,21.32
2017-08-26T23:48:55.826Z,21.12
2017-08-26T23:51:23.962Z,21.12
2017-08-26T23:53:51.878Z,21.15
2017-08-26T23:56:19.782Z,20.97
2017-08-26T23:58:47.690Z,20.85
